Time;durP1;ratioP1;P1;durP2;ratioP2;P2;SDS_P1;SDS_P2;PMS_P1;PMS_P2;Temp;Humidity;BMP_temperature;BMP_pressure;BME280_temperature;BME280_humidity;BME280_pressure;Samples;Min_cycle;Max_cycle;Signal;HPM_P1;HPM_P2
2021/10/09 00:02:59;;;;;;;3.38;2.50;;;18.60;72.60;;;;;;10494953;28;20553;-58
2021/10/09 00:08:01;;;;;;;3.28;2.72;;;18.60;72.70;;;;;;10499014;28;20511;-58
2021/10/09 00:13:02;;;;;;;2.83;2.13;;;18.60;72.70;;;;;;10502820;28;20037;-59
2021/10/09 00:18:04;;;;;;;2.58;1.92;;;18.60;72.70;;;;;;10485657;28;20040;-59
2021/10/09 00:23:04;;;;;;;3.35;2.30;;;18.60;72.80;;;;;;10503441;28;20040;-59
2021/10/09 00:28:05;;;;;;;2.70;2.22;;;18.50;72.80;;;;;;10511410;28;20040;-58
2021/10/09 00:33:06;;;;;;;3.42;2.63;;;18.50;72.80;;;;;;10501567;28;20037;-59
2021/10/09 00:38:06;;;;;;;4.35;3.03;;;18.60;72.70;;;;;;10484643;28;20035;-59
2021/10/09 00:43:07;;;;;;;3.90;2.50;;;18.60;72.30;;;;;;10503051;28;20081;-59
2021/10/09 00:48:08;;;;;;;4.22;2.65;;;18.60;72.20;;;;;;10502757;28;20037;-59
2021/10/09 00:53:12;;;;;;;3.65;2.67;;;18.60;72.20;;;;;;10512486;28;20048;-58
2021/10/09 00:58:15;;;;;;;3.05;2.72;;;18.60;72.10;;;;;;10500572;28;20074;-59
2021/10/09 01:03:16;;;;;;;3.05;2.45;;;18.60;72.20;;;;;;10484168;28;20477;-59
2021/10/09 01:08:16;;;;;;;4.30;2.97;;;18.60;72.30;;;;;;10501446;28;20064;-58
2021/10/09 01:13:17;;;;;;;2.90;2.28;;;18.60;72.40;;;;;;10501326;28;20388;-59
2021/10/09 01:18:18;;;;;;;3.85;3.08;;;18.50;72.40;;;;;;10483179;28;20647;-59
2021/10/09 01:23:22;;;;;;;3.88;2.65;;;18.50;72.30;;;;;;10501070;28;20153;-59
2021/10/09 01:28:23;;;;;;;3.60;2.42;;;18.60;72.00;;;;;;10482828;28;20548;-59
2021/10/09 01:33:23;;;;;;;3.75;3.05;;;18.70;71.90;;;;;;10487433;28;20049;-58
2021/10/09 01:38:26;;;;;;;3.15;2.70;;;18.70;71.90;;;;;;10500282;28;20139;-59
2021/10/09 01:43:28;;;;;;;2.95;2.35;;;18.70;71.60;;;;;;10500095;28;20481;-59
2021/10/09 01:48:36;;;;;;;3.58;2.78;;;18.80;71.60;;;;;;10500137;28;20107;-58
2021/10/09 01:53:38;;;;;;;3.42;2.45;;;18.70;71.60;;;;;;10498572;28;20358;-58
2021/10/09 01:58:39;;;;;;;3.67;2.42;;;18.70;71.70;;;;;;10499393;28;20035;-58
2021/10/09 02:03:39;;;;;;;4.05;3.15;;;18.60;71.80;;;;;;10499739;28;20028;-58
2021/10/09 02:08:41;;;;;;;3.80;3.03;;;18.60;71.90;;;;;;10486685;28;20465;-59
2021/10/09 02:14:01;;;;;;;3.60;2.67;;;18.50;72.00;;;;;;10499124;28;20032;-59
2021/10/09 02:24:08;;;;;;;3.17;2.50;;;18.50;72.10;;;;;;10497685;28;20024;-59
2021/10/09 02:24:44;;;;;;;3.85;2.95;;;18.60;72.00;;;;;;10497632;28;20076;-58
2021/10/09 02:29:44;;;;;;;3.75;2.70;;;18.70;71.70;;;;;;10497795;28;20028;-59
2021/10/09 02:34:45;;;;;;;3.42;2.70;;;18.70;71.50;;;;;;10497841;28;20076;-59
2021/10/09 02:39:45;;;;;;;3.35;3.00;;;18.70;71.30;;;;;;10498305;28;20108;-59
2021/10/09 02:44:46;;;;;;;3.53;2.90;;;18.80;71.00;;;;;;10497921;28;20099;-60
2021/10/09 02:49:47;;;;;;;3.95;2.95;;;18.80;71.00;;;;;;10497412;28;20115;-58
2021/10/09 02:54:48;;;;;;;3.85;2.83;;;18.70;71.10;;;;;;10496328;28;20098;-59
2021/10/09 02:59:49;;;;;;;3.58;2.90;;;18.70;71.30;;;;;;10497375;28;20078;-58
2021/10/09 03:04:49;;;;;;;4.20;3.05;;;18.60;71.40;;;;;;10496277;28;20066;-59
2021/10/09 03:09:50;;;;;;;3.78;2.90;;;18.60;71.60;;;;;;10497058;28;20029;-59
2021/10/09 03:14:51;;;;;;;4.03;3.40;;;18.60;71.40;;;;;;10496231;28;20108;-59
2021/10/09 03:19:52;;;;;;;3.80;2.72;;;18.70;71.30;;;;;;10496727;28;20024;-59
2021/10/09 03:24:53;;;;;;;3.20;2.55;;;18.60;71.30;;;;;;10512538;28;20037;-59
2021/10/09 03:29:53;;;;;;;4.00;2.90;;;18.60;71.40;;;;;;10495556;28;20147;-59
2021/10/09 03:34:54;;;;;;;3.75;2.72;;;18.60;71.50;;;;;;10481810;28;20529;-60
2021/10/09 03:39:58;;;;;;;2.97;2.58;;;18.60;71.50;;;;;;10497768;28;20155;-59
2021/10/09 03:50:32;;;;;;;4.07;3.25;;;18.70;70.90;;;;;;10503715;28;20393;-59
2021/10/09 03:55:33;;;;;;;3.88;2.90;;;18.70;70.80;;;;;;10504536;28;20067;-59
2021/10/09 04:00:34;;;;;;;2.85;2.55;;;18.80;70.50;;;;;;10503316;28;20052;-59
2021/10/09 04:05:34;;;;;;;3.40;3.10;;;18.90;70.40;;;;;;10503080;28;20024;-59
2021/10/09 04:10:39;;;;;;;3.58;2.92;;;18.90;70.40;;;;;;10503890;28;20074;-58
2021/10/09 04:15:40;;;;;;;4.63;3.20;;;18.80;70.50;;;;;;10502529;28;20374;-59
2021/10/09 04:20:41;;;;;;;3.78;3.10;;;18.80;70.60;;;;;;10503376;28;20298;-59
2021/10/09 04:25:41;;;;;;;3.78;2.95;;;18.80;70.40;;;;;;10493167;28;20060;-59
2021/10/09 04:30:42;;;;;;;3.25;2.83;;;18.80;70.40;;;;;;10497760;28;20042;-59
2021/10/09 04:35:43;;;;;;;3.20;2.90;;;18.70;70.50;;;;;;10501703;28;20110;-57
2021/10/09 04:40:43;;;;;;;5.45;3.20;;;18.70;70.60;;;;;;10501512;28;20063;-58
2021/10/09 04:45:44;;;;;;;7.45;2.63;;;18.80;70.40;;;;;;10502966;28;20032;-58
2021/10/09 04:50:45;;;;;;;5.32;3.58;;;19.00;70.30;;;;;;10497410;28;20125;-57
2021/10/09 04:55:46;;;;;;;5.55;3.47;;;18.90;72.40;;;;;;10468499;28;20065;-57
2021/10/09 05:00:48;;;;;;;6.68;3.40;;;18.80;71.50;;;;;;10479377;28;20080;-57
2021/10/09 05:05:49;;;;;;;4.75;3.10;;;18.80;71.30;;;;;;10501765;28;20028;-57
2021/10/09 05:10:49;;;;;;;8.65;3.55;;;18.70;71.30;;;;;;10483406;28;20054;-58
2021/10/09 05:15:50;;;;;;;8.25;3.40;;;18.80;71.80;;;;;;10500214;28;20063;-58
2021/10/09 05:20:51;;;;;;;7.78;3.28;;;18.80;71.90;;;;;;10501148;28;20107;-60
2021/10/09 05:25:51;;;;;;;9.40;3.20;;;18.90;72.10;;;;;;10500878;28;20040;-48
2021/10/09 05:30:56;;;;;;;4.97;3.13;;;18.90;73.10;;;;;;10493882;28;20037;-54
2021/10/09 05:35:58;;;;;;;8.02;3.75;;;18.90;72.60;;;;;;10494283;28;20036;-54
2021/10/09 05:40:59;;;;;;;7.45;3.50;;;18.80;72.80;;;;;;10498377;28;20029;-54
2021/10/09 05:46:00;;;;;;;11.23;3.45;;;18.70;72.60;;;;;;10496413;28;20033;-55
2021/10/09 05:56:09;;;;;;;34.13;6.38;;;18.60;73.00;;;;;;10499902;28;20074;-55
2021/10/09 06:01:38;;;;;;;14.57;5.07;;;18.60;73.20;;;;;;10499382;28;20028;-55
2021/10/09 06:44:11;;;;;;;8.23;5.28;;;18.60;71.00;;;;;;10496464;28;20074;-56
2021/10/09 06:59:37;;;;;;;8.77;5.20;;;18.60;71.10;;;;;;10496079;28;20477;-56
2021/10/09 07:04:38;;;;;;;13.23;6.38;;;18.70;70.90;;;;;;10495844;28;20029;-56
2021/10/09 07:09:39;;;;;;;11.90;5.65;;;18.60;70.80;;;;;;10496865;28;20038;-56
2021/10/09 07:14:39;;;;;;;7.75;5.13;;;18.60;70.70;;;;;;10495352;28;20063;-55
2021/10/09 07:19:40;;;;;;;8.65;5.07;;;18.70;70.30;;;;;;10478985;28;20035;-56
2021/10/09 07:24:41;;;;;;;7.50;4.93;;;18.80;70.20;;;;;;10496921;28;20071;-54
2021/10/09 07:29:41;;;;;;;9.73;5.20;;;18.80;70.30;;;;;;10496342;28;20039;-57
2021/10/09 07:34:42;;;;;;;8.30;4.50;;;18.70;70.90;;;;;;10495332;28;20044;-56
2021/10/09 07:39:43;;;;;;;9.43;4.97;;;18.70;70.60;;;;;;10494854;28;20476;-56
2021/10/09 07:44:44;;;;;;;6.43;5.10;;;18.60;70.70;;;;;;10493910;28;20041;-55
2021/10/09 07:49:46;;;;;;;7.97;5.05;;;18.60;70.90;;;;;;10496414;28;20048;-55
2021/10/09 07:54:46;;;;;;;9.40;5.35;;;18.60;71.00;;;;;;10496358;28;20043;-57
2021/10/09 07:59:47;;;;;;;7.10;4.75;;;18.60;71.00;;;;;;10495032;28;20542;-56
2021/10/09 08:04:49;;;;;;;6.25;4.22;;;18.70;71.00;;;;;;10495048;28;20107;-55
2021/10/09 08:09:50;;;;;;;6.70;4.57;;;18.70;71.00;;;;;;10495739;28;20032;-55
2021/10/09 08:14:50;;;;;;;6.53;4.53;;;18.60;71.10;;;;;;10494825;28;20116;-55
2021/10/09 08:19:51;;;;;;;9.95;4.50;;;18.60;71.50;;;;;;10490706;28;20025;-56
2021/10/09 08:40:51;;;;;;;7.20;4.68;;;18.60;71.70;;;;;;10479385;28;20040;-56
2021/10/09 08:45:51;;;;;;;5.40;4.40;;;18.60;71.70;;;;;;10502690;28;20503;-56
2021/10/09 08:50:52;;;;;;;7.47;5.43;;;18.60;71.70;;;;;;10515741;28;20116;-55
2021/10/09 08:55:53;;;;;;;6.90;5.13;;;18.60;71.70;;;;;;10501081;28;20035;-54
2021/10/09 09:01:06;;;;;;;5.18;4.30;;;18.60;71.70;;;;;;10501848;28;20035;-54
2021/10/09 09:06:22;;;;;;;6.28;4.47;;;18.60;71.70;;;;;;10502079;28;20039;-55
2021/10/09 09:27:41;;;;;;;6.07;5.00;;;18.70;71.80;;;;;;10501773;28;20063;-55
2021/10/09 09:32:53;;;;;;;6.40;4.97;;;18.70;71.70;;;;;;10498314;28;20056;-56
2021/10/09 09:43:02;;;;;;;9.05;5.43;;;18.70;71.60;;;;;;10499711;28;20044;-55
2021/10/09 09:48:04;;;;;;;8.15;5.32;;;18.80;71.60;;;;;;10483008;28;20139;-55
2021/10/09 09:53:06;;;;;;;7.10;4.97;;;18.80;71.60;;;;;;10502092;28;20126;-54
2021/10/09 09:58:09;;;;;;;6.38;4.68;;;18.80;71.40;;;;;;10499698;28;20104;-55
2021/10/09 10:03:11;;;;;;;6.03;5.10;;;18.90;71.40;;;;;;10498753;28;20115;-55
2021/10/09 10:08:12;;;;;;;6.45;5.07;;;18.90;71.30;;;;;;10497936;28;20089;-55
2021/10/09 10:13:13;;;;;;;7.80;5.80;;;18.90;71.20;;;;;;10497980;28;20032;-54
2021/10/09 10:18:46;;;;;;;6.18;5.35;;;19.00;71.30;;;;;;10497542;28;20029;-55
2021/10/09 10:23:47;;;;;;;6.68;5.20;;;19.00;71.20;;;;;;10499140;28;20041;-55
2021/10/09 10:29:13;;;;;;;6.70;5.53;;;19.00;71.10;;;;;;10498409;28;20044;-55
2021/10/09 10:34:20;;;;;;;7.55;5.43;;;19.10;71.10;;;;;;10495774;28;20490;-55
2021/10/09 10:39:39;;;;;;;7.60;5.45;;;19.10;71.00;;;;;;10498145;28;20446;-56
2021/10/09 10:45:09;;;;;;;5.80;4.95;;;19.10;71.00;;;;;;10498222;28;20048;-56
2021/10/09 10:56:11;;;;;;;6.70;5.35;;;19.20;71.00;;;;;;10495925;28;20038;-55
2021/10/09 11:01:16;;;;;;;5.95;5.18;;;19.20;71.00;;;;;;10497405;28;20411;-54
2021/10/09 11:06:19;;;;;;;5.55;4.97;;;19.20;71.00;;;;;;10497304;28;20021;-54
2021/10/09 11:11:42;;;;;;;5.97;4.80;;;19.20;71.00;;;;;;10496096;28;20020;-53
2021/10/09 11:16:43;;;;;;;6.78;5.50;;;19.30;71.00;;;;;;10496748;28;20047;-52
2021/10/09 11:21:54;;;;;;;6.47;5.75;;;19.30;71.00;;;;;;10495939;28;20368;-55
2021/10/09 11:26:54;;;;;;;6.28;5.65;;;19.30;71.00;;;;;;10496706;28;20024;-53
2021/10/09 11:32:05;;;;;;;5.68;5.07;;;19.30;71.10;;;;;;10493930;28;20111;-52
2021/10/09 11:37:05;;;;;;;5.95;5.20;;;19.30;71.10;;;;;;10495239;28;20045;-55
2021/10/09 11:42:13;;;;;;;5.88;4.80;;;19.30;71.20;;;;;;10495469;28;20473;-54
2021/10/09 11:57:50;;;;;;;5.40;4.88;;;19.30;71.20;;;;;;10496658;28;20028;-55
2021/10/09 12:02:50;;;;;;;5.97;5.15;;;19.40;71.10;;;;;;10498824;28;20035;-54
2021/10/09 12:08:13;;;;;;;6.28;5.35;;;19.40;71.20;;;;;;10503880;28;20040;-54
2021/10/09 12:13:13;;;;;;;6.38;5.47;;;19.40;71.30;;;;;;10503551;28;20040;-55
2021/10/09 12:18:14;;;;;;;6.80;5.38;;;19.40;71.30;;;;;;10502220;28;20079;-53
2021/10/09 12:23:26;;;;;;;6.43;5.68;;;19.30;71.30;;;;;;10503649;28;20499;-54
2021/10/09 12:28:27;;;;;;;6.15;4.78;;;19.40;71.40;;;;;;10485230;28;20513;-54
2021/10/09 12:33:39;;;;;;;6.57;5.85;;;19.40;71.40;;;;;;10484768;28;20048;-55
2021/10/09 12:38:41;;;;;;;6.68;5.70;;;19.30;71.30;;;;;;10503049;28;20059;-55
2021/10/09 12:43:43;;;;;;;6.53;5.50;;;19.40;71.40;;;;;;10502816;28;20033;-56
2021/10/09 12:48:44;;;;;;;6.97;5.47;;;19.40;71.40;;;;;;10502787;28;20033;-56
2021/10/09 12:53:44;;;;;;;6.18;5.47;;;19.40;71.50;;;;;;10502035;28;20083;-53
2021/10/09 12:58:45;;;;;;;6.38;5.07;;;19.40;71.50;;;;;;10502143;28;20082;-54
2021/10/09 13:03:46;;;;;;;6.50;5.28;;;19.30;71.70;;;;;;10484171;28;20546;-55
2021/10/09 13:08:47;;;;;;;6.38;5.53;;;19.30;71.70;;;;;;10501486;28;20056;-54
2021/10/09 13:13:48;;;;;;;6.25;5.43;;;19.30;71.80;;;;;;10501070;28;20111;-54
2021/10/09 13:18:48;;;;;;;5.93;5.32;;;19.30;71.90;;;;;;10501114;28;20166;-54
2021/10/09 13:23:49;;;;;;;6.15;5.55;;;19.30;71.90;;;;;;10501517;28;20167;-55
2021/10/09 13:28:50;;;;;;;5.63;5.00;;;19.20;72.00;;;;;;10500996;28;20412;-55
2021/10/09 13:33:52;;;;;;;6.22;5.05;;;19.20;72.00;;;;;;10497418;28;20124;-55
2021/10/09 13:38:53;;;;;;;5.47;4.50;;;19.20;72.10;;;;;;10500612;28;20086;-55
2021/10/09 13:43:53;;;;;;;5.75;4.78;;;19.20;72.10;;;;;;10500605;28;20036;-56
2021/10/09 13:48:54;;;;;;;5.82;5.10;;;19.20;72.10;;;;;;10499395;28;20043;-56
2021/10/09 13:53:55;;;;;;;5.95;5.05;;;19.20;72.20;;;;;;10499607;28;20035;-54
2021/10/09 13:58:56;;;;;;;6.60;5.28;;;19.20;72.30;;;;;;10499867;28;20025;-54
2021/10/09 14:03:57;;;;;;;6.30;5.50;;;19.10;72.30;;;;;;10499013;28;20099;-54
2021/10/09 14:08:57;;;;;;;6.22;5.45;;;19.10;72.40;;;;;;10497994;28;20067;-55
2021/10/09 14:13:58;;;;;;;6.30;5.70;;;19.10;72.50;;;;;;10498918;28;20063;-54
2021/10/09 14:18:59;;;;;;;6.28;5.65;;;19.10;72.50;;;;;;10499269;28;20025;-55
2021/10/09 14:24:00;;;;;;;6.82;6.13;;;19.10;72.60;;;;;;10496891;28;20062;-54
2021/10/09 14:29:00;;;;;;;6.35;5.65;;;19.00;72.60;;;;;;10498463;28;20063;-56
2021/10/09 14:34:03;;;;;;;7.22;5.97;;;19.00;72.70;;;;;;10494067;28;20060;-55
2021/10/09 14:39:04;;;;;;;6.78;5.65;;;19.00;72.80;;;;;;10497427;28;20032;-54
2021/10/09 14:44:04;;;;;;;6.07;5.47;;;19.00;72.80;;;;;;10496453;28;20083;-56
2021/10/09 14:49:13;;;;;;;6.03;5.35;;;18.90;72.90;;;;;;10496396;28;20111;-55
2021/10/09 15:20:31;;;;;;;16.85;7.05;;;18.90;72.60;;;;;;10493179;28;20029;-57
2021/10/09 15:25:32;;;;;;;16.85;7.43;;;19.00;72.60;;;;;;10490845;28;20044;-56
2021/10/09 15:30:33;;;;;;;9.35;6.78;;;19.00;73.00;;;;;;10491870;28;20487;-57
2021/10/09 15:35:34;;;;;;;15.82;7.32;;;19.00;72.80;;;;;;10509879;28;20037;-58
2021/10/09 15:40:35;;;;;;;11.27;6.60;;;19.00;73.00;;;;;;10503421;28;20020;-57
2021/10/09 15:45:37;;;;;;;17.98;7.38;;;19.00;73.00;;;;;;10502092;28;20036;-57
2021/10/09 15:50:38;;;;;;;53.53;30.95;;;19.00;73.10;;;;;;10502429;28;20033;-58
2021/10/09 15:55:39;;;;;;;43.55;28.50;;;19.10;81.80;;;;;;10499003;28;20032;-55
2021/10/09 16:00:39;;;;;;;30.58;14.80;;;19.20;83.30;;;;;;10498381;28;20043;-55
2021/10/09 16:05:40;;;;;;;28.70;13.75;;;19.20;76.50;;;;;;10496895;28;20575;-54
2021/10/09 16:10:42;;;;;;;24.15;12.25;;;19.20;74.70;;;;;;10501292;28;20494;-56
2021/10/09 16:15:43;;;;;;;24.52;14.73;;;19.20;75.90;;;;;;10502629;28;20032;-53
2021/10/09 16:20:43;;;;;;;21.77;13.68;;;19.30;78.10;;;;;;10503698;28;20024;-53
2021/10/09 16:25:44;;;;;;;26.15;12.13;;;19.30;78.30;;;;;;10503452;28;20055;-56
2021/10/09 16:30:46;;;;;;;22.40;12.00;;;19.30;77.70;;;;;;10490785;28;20059;-56
2021/10/09 16:35:47;;;;;;;25.45;12.70;;;19.20;76.00;;;;;;10502185;28;20025;-57
2021/10/09 16:40:48;;;;;;;33.22;12.57;;;19.10;76.10;;;;;;10502787;28;20124;-57
2021/10/09 16:45:48;;;;;;;28.67;13.65;;;19.10;75.90;;;;;;10502724;28;20524;-57
2021/10/09 16:50:49;;;;;;;33.25;12.63;;;19.20;76.00;;;;;;10500813;28;20119;-59
2021/10/09 16:55:49;;;;;;;30.45;13.68;;;19.10;76.10;;;;;;10500310;28;20024;-57
2021/10/09 17:00:50;;;;;;;25.40;12.52;;;19.10;76.30;;;;;;10500296;28;20154;-58
2021/10/09 17:05:56;;;;;;;26.58;10.88;;;19.10;76.20;;;;;;10499925;28;20385;-57
2021/10/09 17:10:57;;;;;;;24.02;12.32;;;19.00;76.30;;;;;;10500424;28;20087;-58
2021/10/09 17:15:58;;;;;;;22.67;10.98;;;19.00;76.10;;;;;;10500369;28;20426;-55
2021/10/09 17:20:59;;;;;;;20.88;11.13;;;18.90;76.20;;;;;;10499141;28;20116;-58
2021/10/09 17:26:00;;;;;;;20.42;11.13;;;18.80;76.20;;;;;;10500383;28;20445;-58
2021/10/09 17:31:00;;;;;;;20.52;11.93;;;18.80;75.90;;;;;;10490849;28;20029;-58
2021/10/09 17:36:01;;;;;;;28.83;12.85;;;18.70;76.10;;;;;;10491308;28;20044;-58
2021/10/09 17:41:02;;;;;;;27.33;11.35;;;18.70;75.90;;;;;;10498906;28;20376;-59
2021/10/09 17:46:03;;;;;;;22.38;10.65;;;18.70;76.00;;;;;;10498213;28;20024;-59
2021/10/09 17:51:03;;;;;;;20.35;11.60;;;18.70;76.10;;;;;;10488253;28;20132;-58
2021/10/09 17:56:04;;;;;;;28.92;11.23;;;18.70;76.10;;;;;;10491075;28;20036;-59
2021/10/09 18:01:05;;;;;;;21.42;11.07;;;18.70;76.10;;;;;;10486771;28;20085;-58
2021/10/09 18:06:07;;;;;;;15.80;10.27;;;18.70;76.10;;;;;;10491112;28;20075;-58
2021/10/09 18:11:08;;;;;;;17.90;10.93;;;18.70;76.00;;;;;;10498338;28;20032;-59
2021/10/09 18:16:10;;;;;;;15.55;10.93;;;18.60;75.80;;;;;;10497455;28;20082;-59
2021/10/09 18:21:11;;;;;;;16.27;9.60;;;18.60;75.60;;;;;;10485734;28;20024;-58
2021/10/09 18:26:12;;;;;;;16.27;9.73;;;18.60;75.30;;;;;;10498948;28;20104;-58
2021/10/09 18:31:12;;;;;;;16.38;10.65;;;18.70;75.40;;;;;;10475052;28;20368;-58
2021/10/09 18:36:13;;;;;;;14.13;10.35;;;18.70;76.00;;;;;;10482882;28;20032;-58
2021/10/09 18:41:14;;;;;;;20.85;10.55;;;18.70;76.00;;;;;;10491425;28;20028;-59
2021/10/09 18:46:15;;;;;;;18.77;9.73;;;18.70;75.40;;;;;;10493891;28;20377;-58
2021/10/09 18:51:16;;;;;;;14.20;9.80;;;18.70;75.40;;;;;;10508767;28;20032;-59
2021/10/09 18:56:16;;;;;;;13.23;10.02;;;18.70;75.50;;;;;;10495755;28;20072;-59
2021/10/09 19:01:17;;;;;;;12.13;9.10;;;18.70;75.60;;;;;;10478267;28;20021;-62
2021/10/09 19:06:18;;;;;;;14.77;9.70;;;18.70;75.50;;;;;;10492923;28;20078;-58
2021/10/09 19:11:18;;;;;;;10.10;8.32;;;18.60;75.30;;;;;;10495204;28;20060;-58
2021/10/09 19:16:19;;;;;;;13.35;9.02;;;18.60;75.30;;;;;;10496155;28;20040;-58
2021/10/09 19:21:20;;;;;;;14.02;9.30;;;18.60;75.30;;;;;;10494924;28;20524;-59
2021/10/09 19:26:20;;;;;;;12.30;9.48;;;18.50;75.30;;;;;;10492256;28;20079;-59
2021/10/09 19:31:21;;;;;;;13.18;9.70;;;18.50;75.30;;;;;;10490740;28;20606;-59
2021/10/09 19:36:24;;;;;;;13.60;9.13;;;18.50;75.30;;;;;;10494991;28;20400;-58
2021/10/09 19:41:25;;;;;;;14.10;9.60;;;18.50;75.40;;;;;;10496564;28;20023;-58
2021/10/09 19:46:26;;;;;;;13.15;10.25;;;18.50;75.30;;;;;;10512407;28;20029;-58
2021/10/09 19:51:30;;;;;;;12.15;8.98;;;18.40;75.20;;;;;;10499993;28;20039;-58
2021/10/09 19:56:31;;;;;;;11.88;9.15;;;18.40;75.20;;;;;;10495181;28;20028;-58
2021/10/09 20:01:32;;;;;;;14.40;9.02;;;18.40;75.20;;;;;;10495033;28;20082;-58
2021/10/09 20:06:32;;;;;;;12.80;8.88;;;18.40;75.30;;;;;;10494771;28;20029;-58
2021/10/09 20:11:48;;;;;;;11.57;9.38;;;18.40;75.20;;;;;;10496064;28;20417;-58
2021/10/09 20:16:49;;;;;;;10.25;8.82;;;18.40;75.00;;;;;;10495766;28;20035;-58
2021/10/09 20:21:58;;;;;;;10.38;8.10;;;18.40;74.80;;;;;;10494954;28;20056;-58
2021/10/09 20:26:59;;;;;;;14.30;9.30;;;18.40;75.40;;;;;;10501603;28;20036;-58
2021/10/09 20:32:00;;;;;;;14.93;10.02;;;18.40;74.70;;;;;;10503621;28;20461;-59
2021/10/09 20:37:01;;;;;;;12.95;9.25;;;18.40;74.70;;;;;;10501736;28;20480;-58
2021/10/09 20:42:02;;;;;;;10.93;9.10;;;18.40;74.60;;;;;;10501782;28;20060;-58
2021/10/09 20:47:04;;;;;;;9.52;7.85;;;18.50;74.20;;;;;;10501349;28;20101;-58
2021/10/09 20:52:09;;;;;;;10.65;8.32;;;18.50;74.00;;;;;;10501592;28;20028;-58
2021/10/09 20:57:10;;;;;;;9.98;8.27;;;18.50;73.90;;;;;;10517689;28;20060;-59
2021/10/09 21:02:13;;;;;;;10.63;8.10;;;18.60;73.80;;;;;;10501507;28;20059;-59
2021/10/09 21:07:21;;;;;;;10.52;9.43;;;18.60;73.50;;;;;;10502119;28;20103;-59
2021/10/09 21:23:00;;;;;;;12.50;9.95;;;18.60;73.30;;;;;;10501069;28;20107;-58
2021/10/09 21:28:02;;;;;;;10.18;8.55;;;18.60;73.30;;;;;;10501283;28;20388;-59
2021/10/09 21:33:04;;;;;;;10.88;8.23;;;18.60;73.40;;;;;;10486234;28;20785;-59
2021/10/09 21:38:05;;;;;;;9.88;8.05;;;18.50;73.40;;;;;;10498879;28;20488;-59
2021/10/09 21:43:05;;;;;;;9.93;8.32;;;18.50;73.60;;;;;;10499334;28;20021;-59
2021/10/09 21:48:06;;;;;;;11.48;8.38;;;18.50;73.50;;;;;;10501825;28;20074;-59
2021/10/09 21:53:06;;;;;;;9.95;8.10;;;18.60;73.20;;;;;;10512029;28;20162;-59
2021/10/09 21:58:10;;;;;;;9.68;8.55;;;18.60;73.00;;;;;;10500131;28;20063;-59
2021/10/09 22:19:29;;;;;;;8.23;7.43;;;18.60;72.70;;;;;;10499544;28;20036;-58
2021/10/09 22:35:04;;;;;;;10.97;8.23;;;18.60;72.40;;;;;;10484840;28;20045;-59
2021/10/09 22:40:08;;;;;;;10.98;9.85;;;18.60;72.50;;;;;;10497043;28;20089;-59
2021/10/09 22:45:10;;;;;;;11.77;9.07;;;18.60;72.50;;;;;;10496272;28;20131;-58
2021/10/09 22:50:11;;;;;;;8.80;7.90;;;18.60;72.40;;;;;;10498122;28;20048;-59
2021/10/09 22:55:13;;;;;;;10.93;8.80;;;18.70;72.10;;;;;;10496890;28;20033;-60
2021/10/09 23:00:14;;;;;;;9.52;8.52;;;18.70;71.90;;;;;;10497577;28;20147;-59
2021/10/09 23:05:14;;;;;;;9.55;8.00;;;18.70;71.70;;;;;;10497373;28;20179;-59
2021/10/09 23:10:15;;;;;;;9.60;8.68;;;18.70;71.80;;;;;;10496127;28;20476;-59
2021/10/09 23:15:16;;;;;;;8.60;7.28;;;18.60;71.80;;;;;;10495753;28;20043;-59
2021/10/09 23:20:16;;;;;;;9.60;8.23;;;18.60;71.90;;;;;;10495703;28;20150;-59
2021/10/09 23:25:17;;;;;;;10.13;8.30;;;18.60;71.80;;;;;;10496806;28;20543;-59
2021/10/09 23:30:21;;;;;;;15.50;8.90;;;18.60;71.80;;;;;;10468341;28;20032;-59
2021/10/09 23:35:21;;;;;;;9.45;8.38;;;18.60;71.80;;;;;;10496552;28;20049;-59
2021/10/09 23:40:22;;;;;;;9.63;7.70;;;18.60;71.90;;;;;;10496831;28;20025;-59
2021/10/09 23:45:23;;;;;;;8.95;7.97;;;18.60;71.80;;;;;;10495575;28;20028;-59
2021/10/09 23:50:24;;;;;;;9.88;8.90;;;18.70;71.60;;;;;;10496612;28;20040;-59
2021/10/09 23:55:25;;;;;;;10.00;7.88;;;18.70;71.30;;;;;;10496448;28;20066;-59
